sensor_id;sensor_type;location;lat;lon;timestamp;P1;durP1;ratioP1;P2;durP2;ratioP2
21663;SDS011;10993;52.510;13.456;2023-04-25T00:01:28;2.47;;;1.55;;
21663;SDS011;10993;52.510;13.456;2023-04-25T00:06:28;3.33;;;1.58;;
21663;SDS011;10993;52.510;13.456;2023-04-25T00:11:29;2.15;;;1.30;;
21663;SDS011;10993;52.510;13.456;2023-04-25T00:16:32;4.38;;;1.45;;
21663;SDS011;10993;52.510;13.456;2023-04-25T00:21:34;5.18;;;1.60;;
21663;SDS011;10993;52.510;13.456;2023-04-25T00:26:35;3.67;;;1.58;;
21663;SDS011;10993;52.510;13.456;2023-04-25T00:31:37;5.95;;;1.75;;
21663;SDS011;10993;52.510;13.456;2023-04-25T00:36:37;4.85;;;1.40;;
21663;SDS011;10993;52.510;13.456;2023-04-25T00:41:38;2.58;;;1.30;;
21663;SDS011;10993;52.510;13.456;2023-04-25T00:46:40;4.72;;;1.50;;
21663;SDS011;10993;52.510;13.456;2023-04-25T00:51:42;2.70;;;1.48;;
21663;SDS011;10993;52.510;13.456;2023-04-25T00:56:44;2.45;;;1.33;;
21663;SDS011;10993;52.510;13.456;2023-04-25T01:01:46;3.65;;;1.42;;
21663;SDS011;10993;52.510;13.456;2023-04-25T01:06:47;2.85;;;1.38;;
21663;SDS011;10993;52.510;13.456;2023-04-25T01:11:48;5.15;;;1.80;;
21663;SDS011;10993;52.510;13.456;2023-04-25T01:16:50;3.50;;;1.38;;
21663;SDS011;10993;52.510;13.456;2023-04-25T01:21:52;3.60;;;1.80;;
21663;SDS011;10993;52.510;13.456;2023-04-25T01:26:52;5.95;;;1.38;;
21663;SDS011;10993;52.510;13.456;2023-04-25T01:31:56;5.22;;;2.17;;
21663;SDS011;10993;52.510;13.456;2023-04-25T01:37:00;5.55;;;1.80;;
21663;SDS011;10993;52.510;13.456;2023-04-25T01:42:03;6.95;;;1.63;;
21663;SDS011;10993;52.510;13.456;2023-04-25T01:47:06;4.85;;;1.73;;
21663;SDS011;10993;52.510;13.456;2023-04-25T01:52:08;4.93;;;1.52;;
21663;SDS011;10993;52.510;13.456;2023-04-25T01:57:08;6.60;;;1.70;;
21663;SDS011;10993;52.510;13.456;2023-04-25T02:02:08;8.85;;;1.77;;
21663;SDS011;10993;52.510;13.456;2023-04-25T02:07:10;5.15;;;1.70;;
21663;SDS011;10993;52.510;13.456;2023-04-25T02:12:10;4.40;;;1.52;;
21663;SDS011;10993;52.510;13.456;2023-04-25T02:17:11;2.80;;;1.67;;
21663;SDS011;10993;52.510;13.456;2023-04-25T02:22:13;5.20;;;2.00;;
21663;SDS011;10993;52.510;13.456;2023-04-25T02:27:14;4.93;;;2.45;;
21663;SDS011;10993;52.510;13.456;2023-04-25T02:32:15;4.30;;;2.10;;
21663;SDS011;10993;52.510;13.456;2023-04-25T02:37:17;7.28;;;2.13;;
21663;SDS011;10993;52.510;13.456;2023-04-25T02:42:17;5.88;;;2.00;;
21663;SDS011;10993;52.510;13.456;2023-04-25T02:47:17;8.02;;;2.15;;
21663;SDS011;10993;52.510;13.456;2023-04-25T02:52:19;5.80;;;2.70;;
21663;SDS011;10993;52.510;13.456;2023-04-25T02:57:21;5.20;;;2.28;;
21663;SDS011;10993;52.510;13.456;2023-04-25T03:02:21;5.90;;;2.00;;
21663;SDS011;10993;52.510;13.456;2023-04-25T03:07:23;5.10;;;2.38;;
21663;SDS011;10993;52.510;13.456;2023-04-25T03:12:23;4.63;;;2.42;;
21663;SDS011;10993;52.510;13.456;2023-04-25T03:17:23;5.68;;;2.15;;
21663;SDS011;10993;52.510;13.456;2023-04-25T03:22:25;5.75;;;2.13;;
21663;SDS011;10993;52.510;13.456;2023-04-25T03:27:25;8.02;;;2.40;;
21663;SDS011;10993;52.510;13.456;2023-04-25T03:32:26;4.85;;;2.22;;
21663;SDS011;10993;52.510;13.456;2023-04-25T03:37:28;6.95;;;2.42;;
21663;SDS011;10993;52.510;13.456;2023-04-25T03:42:28;6.47;;;2.60;;
21663;SDS011;10993;52.510;13.456;2023-04-25T03:47:28;4.43;;;2.10;;
21663;SDS011;10993;52.510;13.456;2023-04-25T03:52:30;6.25;;;2.38;;
21663;SDS011;10993;52.510;13.456;2023-04-25T03:57:31;6.90;;;2.15;;
21663;SDS011;10993;52.510;13.456;2023-04-25T04:02:31;4.97;;;2.13;;
21663;SDS011;10993;52.510;13.456;2023-04-25T04:07:36;3.75;;;1.98;;
21663;SDS011;10993;52.510;13.456;2023-04-25T04:12:40;7.18;;;2.40;;
21663;SDS011;10993;52.510;13.456;2023-04-25T04:17:40;3.75;;;2.08;;
21663;SDS011;10993;52.510;13.456;2023-04-25T04:22:42;4.25;;;1.95;;
21663;SDS011;10993;52.510;13.456;2023-04-25T04:27:43;5.28;;;2.42;;
21663;SDS011;10993;52.510;13.456;2023-04-25T04:32:44;6.55;;;2.55;;
21663;SDS011;10993;52.510;13.456;2023-04-25T04:37:46;8.13;;;2.50;;
21663;SDS011;10993;52.510;13.456;2023-04-25T04:42:47;4.70;;;1.92;;
21663;SDS011;10993;52.510;13.456;2023-04-25T04:47:48;5.78;;;2.35;;
21663;SDS011;10993;52.510;13.456;2023-04-25T04:52:49;5.97;;;2.47;;
21663;SDS011;10993;52.510;13.456;2023-04-25T04:57:50;6.68;;;2.45;;
21663;SDS011;10993;52.510;13.456;2023-04-25T05:02:51;4.90;;;2.38;;
21663;SDS011;10993;52.510;13.456;2023-04-25T05:07:52;5.00;;;1.98;;
21663;SDS011;10993;52.510;13.456;2023-04-25T05:12:53;6.25;;;2.10;;
21663;SDS011;10993;52.510;13.456;2023-04-25T05:17:53;7.68;;;2.40;;
21663;SDS011;10993;52.510;13.456;2023-04-25T05:22:55;7.05;;;2.40;;
21663;SDS011;10993;52.510;13.456;2023-04-25T05:27:55;5.78;;;2.33;;
21663;SDS011;10993;52.510;13.456;2023-04-25T05:32:56;10.80;;;2.35;;
21663;SDS011;10993;52.510;13.456;2023-04-25T05:37:58;7.07;;;2.05;;
21663;SDS011;10993;52.510;13.456;2023-04-25T05:42:58;4.03;;;1.98;;
21663;SDS011;10993;52.510;13.456;2023-04-25T05:47:59;5.43;;;2.40;;
21663;SDS011;10993;52.510;13.456;2023-04-25T05:53:00;4.05;;;2.00;;
21663;SDS011;10993;52.510;13.456;2023-04-25T05:58:01;8.38;;;3.00;;
21663;SDS011;10993;52.510;13.456;2023-04-25T06:03:01;7.03;;;2.78;;
21663;SDS011;10993;52.510;13.456;2023-04-25T06:08:03;6.53;;;2.60;;
21663;SDS011;10993;52.510;13.456;2023-04-25T06:13:04;4.90;;;2.47;;
21663;SDS011;10993;52.510;13.456;2023-04-25T06:18:05;7.38;;;2.92;;
21663;SDS011;10993;52.510;13.456;2023-04-25T06:23:06;7.30;;;2.90;;
21663;SDS011;10993;52.510;13.456;2023-04-25T06:28:07;6.72;;;2.78;;
21663;SDS011;10993;52.510;13.456;2023-04-25T06:33:07;7.93;;;2.97;;
21663;SDS011;10993;52.510;13.456;2023-04-25T06:38:09;6.88;;;3.10;;
21663;SDS011;10993;52.510;13.456;2023-04-25T06:43:10;6.35;;;2.47;;
21663;SDS011;10993;52.510;13.456;2023-04-25T06:48:10;6.18;;;2.65;;
21663;SDS011;10993;52.510;13.456;2023-04-25T06:53:12;7.95;;;2.80;;
21663;SDS011;10993;52.510;13.456;2023-04-25T06:58:13;4.55;;;2.47;;
21663;SDS011;10993;52.510;13.456;2023-04-25T07:03:13;6.40;;;2.85;;
21663;SDS011;10993;52.510;13.456;2023-04-25T07:08:15;6.68;;;2.38;;
21663;SDS011;10993;52.510;13.456;2023-04-25T07:13:15;5.88;;;2.25;;
21663;SDS011;10993;52.510;13.456;2023-04-25T07:18:16;5.70;;;2.55;;
21663;SDS011;10993;52.510;13.456;2023-04-25T07:23:17;7.63;;;2.22;;
21663;SDS011;10993;52.510;13.456;2023-04-25T07:28:18;5.43;;;2.20;;
21663;SDS011;10993;52.510;13.456;2023-04-25T07:33:18;5.63;;;2.70;;
21663;SDS011;10993;52.510;13.456;2023-04-25T07:38:21;6.10;;;2.70;;
21663;SDS011;10993;52.510;13.456;2023-04-25T07:43:22;6.35;;;2.30;;
21663;SDS011;10993;52.510;13.456;2023-04-25T07:48:22;9.70;;;2.63;;
21663;SDS011;10993;52.510;13.456;2023-04-25T07:53:24;7.15;;;3.15;;
21663;SDS011;10993;52.510;13.456;2023-04-25T07:58:24;9.55;;;2.67;;
21663;SDS011;10993;52.510;13.456;2023-04-25T08:03:25;5.53;;;1.88;;
21663;SDS011;10993;52.510;13.456;2023-04-25T08:08:27;6.82;;;2.03;;
21663;SDS011;10993;52.510;13.456;2023-04-25T08:13:27;11.93;;;2.92;;
21663;SDS011;10993;52.510;13.456;2023-04-25T08:18:27;7.60;;;2.38;;
21663;SDS011;10993;52.510;13.456;2023-04-25T08:23:29;7.60;;;2.72;;
21663;SDS011;10993;52.510;13.456;2023-04-25T08:28:29;9.10;;;2.53;;
21663;SDS011;10993;52.510;13.456;2023-04-25T08:33:30;7.25;;;1.98;;
21663;SDS011;10993;52.510;13.456;2023-04-25T08:38:32;5.65;;;2.22;;
21663;SDS011;10993;52.510;13.456;2023-04-25T08:43:35;9.48;;;2.63;;
21663;SDS011;10993;52.510;13.456;2023-04-25T08:48:35;11.25;;;2.28;;
21663;SDS011;10993;52.510;13.456;2023-04-25T08:53:37;13.38;;;2.92;;
21663;SDS011;10993;52.510;13.456;2023-04-25T08:58:42;5.90;;;1.70;;
21663;SDS011;10993;52.510;13.456;2023-04-25T09:03:43;12.10;;;1.83;;
21663;SDS011;10993;52.510;13.456;2023-04-25T09:08:46;5.10;;;1.45;;
21663;SDS011;10993;52.510;13.456;2023-04-25T09:13:46;10.02;;;2.50;;
21663;SDS011;10993;52.510;13.456;2023-04-25T09:18:47;6.47;;;1.98;;
21663;SDS011;10993;52.510;13.456;2023-04-25T09:23:49;6.13;;;1.65;;
21663;SDS011;10993;52.510;13.456;2023-04-25T09:28:56;7.00;;;2.03;;
21663;SDS011;10993;52.510;13.456;2023-04-25T09:34:05;7.70;;;1.40;;
21663;SDS011;10993;52.510;13.456;2023-04-25T09:39:06;7.75;;;1.83;;
21663;SDS011;10993;52.510;13.456;2023-04-25T09:44:15;5.63;;;1.95;;
21663;SDS011;10993;52.510;13.456;2023-04-25T09:49:15;3.47;;;1.15;;
21663;SDS011;10993;52.510;13.456;2023-04-25T09:54:17;6.85;;;1.13;;
21663;SDS011;10993;52.510;13.456;2023-04-25T09:59:18;4.20;;;1.20;;
21663;SDS011;10993;52.510;13.456;2023-04-25T10:04:22;5.82;;;1.30;;
21663;SDS011;10993;52.510;13.456;2023-04-25T10:09:27;7.03;;;1.67;;
21663;SDS011;10993;52.510;13.456;2023-04-25T10:14:33;6.28;;;1.10;;
21663;SDS011;10993;52.510;13.456;2023-04-25T10:19:34;3.85;;;1.20;;
21663;SDS011;10993;52.510;13.456;2023-04-25T10:24:36;4.05;;;1.05;;
21663;SDS011;10993;52.510;13.456;2023-04-25T10:29:38;3.33;;;1.20;;
21663;SDS011;10993;52.510;13.456;2023-04-25T10:34:39;6.53;;;1.33;;
21663;SDS011;10993;52.510;13.456;2023-04-25T10:39:42;3.63;;;1.27;;
21663;SDS011;10993;52.510;13.456;2023-04-25T10:44:47;4.82;;;1.33;;
21663;SDS011;10993;52.510;13.456;2023-04-25T10:50:04;11.07;;;1.70;;
21663;SDS011;10993;52.510;13.456;2023-04-25T10:55:07;4.88;;;1.25;;
21663;SDS011;10993;52.510;13.456;2023-04-25T11:00:09;6.28;;;1.45;;
21663;SDS011;10993;52.510;13.456;2023-04-25T11:05:16;6.53;;;1.40;;
21663;SDS011;10993;52.510;13.456;2023-04-25T11:10:25;7.30;;;1.40;;
21663;SDS011;10993;52.510;13.456;2023-04-25T11:15:27;7.53;;;2.10;;
21663;SDS011;10993;52.510;13.456;2023-04-25T11:20:27;4.95;;;1.27;;
21663;SDS011;10993;52.510;13.456;2023-04-25T11:25:30;6.05;;;1.25;;
21663;SDS011;10993;52.510;13.456;2023-04-25T11:30:30;8.82;;;1.65;;
21663;SDS011;10993;52.510;13.456;2023-04-25T11:35:31;5.47;;;1.38;;
21663;SDS011;10993;52.510;13.456;2023-04-25T11:40:34;4.82;;;1.65;;
21663;SDS011;10993;52.510;13.456;2023-04-25T11:45:36;5.47;;;1.27;;
21663;SDS011;10993;52.510;13.456;2023-04-25T11:50:38;8.88;;;1.55;;
21663;SDS011;10993;52.510;13.456;2023-04-25T11:55:40;3.85;;;1.27;;
21663;SDS011;10993;52.510;13.456;2023-04-25T12:00:41;5.80;;;1.15;;
21663;SDS011;10993;52.510;13.456;2023-04-25T12:05:42;6.97;;;1.73;;
21663;SDS011;10993;52.510;13.456;2023-04-25T12:10:46;4.28;;;1.00;;
21663;SDS011;10993;52.510;13.456;2023-04-25T12:15:47;7.32;;;1.13;;
21663;SDS011;10993;52.510;13.456;2023-04-25T12:20:47;3.90;;;1.08;;
21663;SDS011;10993;52.510;13.456;2023-04-25T12:25:49;5.25;;;1.27;;
21663;SDS011;10993;52.510;13.456;2023-04-25T12:30:53;9.85;;;1.63;;
21663;SDS011;10993;52.510;13.456;2023-04-25T12:35:56;4.30;;;1.20;;
21663;SDS011;10993;52.510;13.456;2023-04-25T12:40:58;7.55;;;2.03;;
21663;SDS011;10993;52.510;13.456;2023-04-25T12:45:59;5.53;;;1.25;;
21663;SDS011;10993;52.510;13.456;2023-04-25T12:50:59;5.55;;;1.05;;
21663;SDS011;10993;52.510;13.456;2023-04-25T12:56:01;7.88;;;1.45;;
21663;SDS011;10993;52.510;13.456;2023-04-25T13:01:02;3.88;;;1.48;;
21663;SDS011;10993;52.510;13.456;2023-04-25T13:06:02;3.38;;;1.10;;
21663;SDS011;10993;52.510;13.456;2023-04-25T13:11:04;4.97;;;0.82;;
21663;SDS011;10993;52.510;13.456;2023-04-25T13:16:05;4.68;;;1.20;;
21663;SDS011;10993;52.510;13.456;2023-04-25T13:21:06;3.03;;;1.00;;
21663;SDS011;10993;52.510;13.456;2023-04-25T13:26:07;3.63;;;0.80;;
21663;SDS011;10993;52.510;13.456;2023-04-25T13:31:08;6.38;;;0.95;;
21663;SDS011;10993;52.510;13.456;2023-04-25T13:36:08;3.08;;;0.88;;
21663;SDS011;10993;52.510;13.456;2023-04-25T13:41:10;4.57;;;1.05;;
21663;SDS011;10993;52.510;13.456;2023-04-25T13:46:13;4.32;;;0.98;;
21663;SDS011;10993;52.510;13.456;2023-04-25T13:51:15;6.93;;;1.02;;
21663;SDS011;10993;52.510;13.456;2023-04-25T13:56:18;5.10;;;1.27;;
21663;SDS011;10993;52.510;13.456;2023-04-25T14:01:19;5.22;;;1.75;;
21663;SDS011;10993;52.510;13.456;2023-04-25T14:06:21;5.60;;;1.67;;
21663;SDS011;10993;52.510;13.456;2023-04-25T14:11:25;6.88;;;1.73;;
21663;SDS011;10993;52.510;13.456;2023-04-25T14:16:25;4.35;;;1.40;;
21663;SDS011;10993;52.510;13.456;2023-04-25T14:21:26;4.57;;;1.02;;
21663;SDS011;10993;52.510;13.456;2023-04-25T14:26:28;3.85;;;1.15;;
21663;SDS011;10993;52.510;13.456;2023-04-25T14:31:28;7.50;;;1.63;;
21663;SDS011;10993;52.510;13.456;2023-04-25T14:36:29;6.07;;;1.40;;
21663;SDS011;10993;52.510;13.456;2023-04-25T14:41:32;4.10;;;1.60;;
21663;SDS011;10993;52.510;13.456;2023-04-25T14:46:32;5.38;;;1.45;;
21663;SDS011;10993;52.510;13.456;2023-04-25T14:51:32;4.93;;;1.08;;
21663;SDS011;10993;52.510;13.456;2023-04-25T14:56:34;4.25;;;1.15;;
21663;SDS011;10993;52.510;13.456;2023-04-25T15:01:35;5.90;;;1.27;;
21663;SDS011;10993;52.510;13.456;2023-04-25T15:06:36;5.70;;;1.02;;
21663;SDS011;10993;52.510;13.456;2023-04-25T15:11:37;4.72;;;1.50;;
21663;SDS011;10993;52.510;13.456;2023-04-25T15:16:38;4.55;;;1.40;;
21663;SDS011;10993;52.510;13.456;2023-04-25T15:21:39;5.15;;;1.60;;
21663;SDS011;10993;52.510;13.456;2023-04-25T15:26:41;4.18;;;1.23;;
21663;SDS011;10993;52.510;13.456;2023-04-25T15:31:41;3.78;;;1.33;;
21663;SDS011;10993;52.510;13.456;2023-04-25T15:36:41;2.88;;;1.00;;
21663;SDS011;10993;52.510;13.456;2023-04-25T15:41:43;4.75;;;1.23;;
21663;SDS011;10993;52.510;13.456;2023-04-25T15:46:43;2.70;;;0.90;;
21663;SDS011;10993;52.510;13.456;2023-04-25T15:51:45;4.10;;;1.05;;
21663;SDS011;10993;52.510;13.456;2023-04-25T15:56:47;2.60;;;0.70;;
21663;SDS011;10993;52.510;13.456;2023-04-25T16:01:47;3.70;;;1.13;;
21663;SDS011;10993;52.510;13.456;2023-04-25T16:06:48;3.63;;;1.25;;
21663;SDS011;10993;52.510;13.456;2023-04-25T16:11:49;4.55;;;0.98;;
21663;SDS011;10993;52.510;13.456;2023-04-25T16:16:50;5.07;;;1.10;;
21663;SDS011;10993;52.510;13.456;2023-04-25T16:21:50;3.65;;;0.80;;
21663;SDS011;10993;52.510;13.456;2023-04-25T16:26:52;2.80;;;1.17;;
21663;SDS011;10993;52.510;13.456;2023-04-25T16:31:52;3.65;;;1.10;;
21663;SDS011;10993;52.510;13.456;2023-04-25T16:36:53;3.53;;;0.98;;
21663;SDS011;10993;52.510;13.456;2023-04-25T16:41:55;2.65;;;0.90;;
21663;SDS011;10993;52.510;13.456;2023-04-25T16:46:55;3.67;;;1.27;;
21663;SDS011;10993;52.510;13.456;2023-04-25T16:51:56;4.60;;;1.15;;
21663;SDS011;10993;52.510;13.456;2023-04-25T16:56:57;2.20;;;0.90;;
21663;SDS011;10993;52.510;13.456;2023-04-25T17:01:58;1.58;;;0.60;;
21663;SDS011;10993;52.510;13.456;2023-04-25T17:06:59;4.55;;;1.70;;
21663;SDS011;10993;52.510;13.456;2023-04-25T17:12:01;2.95;;;1.10;;
21663;SDS011;10993;52.510;13.456;2023-04-25T17:17:02;3.75;;;1.40;;
21663;SDS011;10993;52.510;13.456;2023-04-25T17:22:03;5.50;;;1.75;;
21663;SDS011;10993;52.510;13.456;2023-04-25T17:27:04;5.82;;;1.63;;
21663;SDS011;10993;52.510;13.456;2023-04-25T17:32:07;7.45;;;2.13;;
21663;SDS011;10993;52.510;13.456;2023-04-25T17:37:07;8.85;;;2.40;;
21663;SDS011;10993;52.510;13.456;2023-04-25T17:42:15;1.92;;;0.68;;
21663;SDS011;10993;52.510;13.456;2023-04-25T17:47:15;6.85;;;2.80;;
21663;SDS011;10993;52.510;13.456;2023-04-25T17:52:16;5.65;;;1.58;;
21663;SDS011;10993;52.510;13.456;2023-04-25T17:57:18;3.78;;;0.90;;
21663;SDS011;10993;52.510;13.456;2023-04-25T18:02:21;4.70;;;0.90;;
21663;SDS011;10993;52.510;13.456;2023-04-25T18:07:22;3.35;;;1.35;;
21663;SDS011;10993;52.510;13.456;2023-04-25T18:12:23;5.40;;;1.30;;
21663;SDS011;10993;52.510;13.456;2023-04-25T18:17:24;4.18;;;1.33;;
21663;SDS011;10993;52.510;13.456;2023-04-25T18:22:24;8.35;;;2.20;;
21663;SDS011;10993;52.510;13.456;2023-04-25T18:27:27;4.00;;;1.63;;
21663;SDS011;10993;52.510;13.456;2023-04-25T18:32:27;5.10;;;1.48;;
21663;SDS011;10993;52.510;13.456;2023-04-25T18:37:28;4.78;;;1.30;;
21663;SDS011;10993;52.510;13.456;2023-04-25T18:42:30;6.25;;;2.05;;
21663;SDS011;10993;52.510;13.456;2023-04-25T18:47:30;5.57;;;1.50;;
21663;SDS011;10993;52.510;13.456;2023-04-25T18:52:31;3.75;;;1.20;;
21663;SDS011;10993;52.510;13.456;2023-04-25T18:57:33;5.00;;;1.25;;
21663;SDS011;10993;52.510;13.456;2023-04-25T19:02:34;10.95;;;3.90;;
21663;SDS011;10993;52.510;13.456;2023-04-25T19:07:35;4.60;;;1.92;;
21663;SDS011;10993;52.510;13.456;2023-04-25T19:12:37;4.43;;;1.38;;
21663;SDS011;10993;52.510;13.456;2023-04-25T19:17:38;2.83;;;1.30;;
21663;SDS011;10993;52.510;13.456;2023-04-25T19:22:38;3.03;;;1.00;;
21663;SDS011;10993;52.510;13.456;2023-04-25T19:27:40;5.38;;;1.30;;
21663;SDS011;10993;52.510;13.456;2023-04-25T19:32:41;2.58;;;0.70;;
21663;SDS011;10993;52.510;13.456;2023-04-25T19:37:41;1.98;;;0.90;;
21663;SDS011;10993;52.510;13.456;2023-04-25T19:42:46;2.10;;;0.98;;
21663;SDS011;10993;52.510;13.456;2023-04-25T19:47:46;5.07;;;1.27;;
21663;SDS011;10993;52.510;13.456;2023-04-25T19:52:47;2.22;;;1.10;;
21663;SDS011;10993;52.510;13.456;2023-04-25T19:57:49;4.93;;;0.93;;
21663;SDS011;10993;52.510;13.456;2023-04-25T20:02:50;4.28;;;1.00;;
21663;SDS011;10993;52.510;13.456;2023-04-25T20:07:50;3.20;;;1.20;;
21663;SDS011;10993;52.510;13.456;2023-04-25T20:12:52;6.00;;;1.35;;
21663;SDS011;10993;52.510;13.456;2023-04-25T20:17:53;4.65;;;1.45;;
21663;SDS011;10993;52.510;13.456;2023-04-25T20:22:53;4.97;;;1.20;;
21663;SDS011;10993;52.510;13.456;2023-04-25T20:27:55;8.95;;;2.80;;
21663;SDS011;10993;52.510;13.456;2023-04-25T20:32:56;6.60;;;1.92;;
21663;SDS011;10993;52.510;13.456;2023-04-25T20:37:57;5.38;;;1.50;;
21663;SDS011;10993;52.510;13.456;2023-04-25T20:42:58;5.22;;;1.50;;
21663;SDS011;10993;52.510;13.456;2023-04-25T20:48:00;3.08;;;1.10;;
21663;SDS011;10993;52.510;13.456;2023-04-25T20:53:01;7.65;;;1.67;;
21663;SDS011;10993;52.510;13.456;2023-04-25T20:58:04;6.82;;;2.20;;
21663;SDS011;10993;52.510;13.456;2023-04-25T21:03:06;4.80;;;1.40;;
21663;SDS011;10993;52.510;13.456;2023-04-25T21:08:07;8.98;;;2.10;;
21663;SDS011;10993;52.510;13.456;2023-04-25T21:13:09;9.38;;;1.63;;
21663;SDS011;10993;52.510;13.456;2023-04-25T21:18:11;7.63;;;2.20;;
21663;SDS011;10993;52.510;13.456;2023-04-25T21:23:11;3.58;;;1.35;;
21663;SDS011;10993;52.510;13.456;2023-04-25T21:28:13;5.90;;;1.10;;
21663;SDS011;10993;52.510;13.456;2023-04-25T21:33:13;4.78;;;1.15;;
21663;SDS011;10993;52.510;13.456;2023-04-25T21:38:14;2.60;;;1.05;;
21663;SDS011;10993;52.510;13.456;2023-04-25T21:43:16;10.60;;;2.40;;
21663;SDS011;10993;52.510;13.456;2023-04-25T21:48:17;5.32;;;1.65;;
21663;SDS011;10993;52.510;13.456;2023-04-25T21:53:17;7.65;;;1.85;;
21663;SDS011;10993;52.510;13.456;2023-04-25T21:58:19;6.30;;;1.75;;
21663;SDS011;10993;52.510;13.456;2023-04-25T22:03:19;4.82;;;1.17;;
21663;SDS011;10993;52.510;13.456;2023-04-25T22:08:19;5.50;;;1.55;;
21663;SDS011;10993;52.510;13.456;2023-04-25T22:13:21;2.08;;;0.90;;
21663;SDS011;10993;52.510;13.456;2023-04-25T22:18:21;4.60;;;1.10;;
21663;SDS011;10993;52.510;13.456;2023-04-25T22:23:22;7.90;;;2.03;;
21663;SDS011;10993;52.510;13.456;2023-04-25T22:28:24;3.97;;;1.17;;
21663;SDS011;10993;52.510;13.456;2023-04-25T22:33:24;4.80;;;1.40;;
21663;SDS011;10993;52.510;13.456;2023-04-25T22:38:25;3.05;;;1.15;;
21663;SDS011;10993;52.510;13.456;2023-04-25T22:43:26;2.50;;;1.13;;
21663;SDS011;10993;52.510;13.456;2023-04-25T22:48:28;6.35;;;1.10;;
21663;SDS011;10993;52.510;13.456;2023-04-25T22:53:28;3.50;;;1.00;;
21663;SDS011;10993;52.510;13.456;2023-04-25T22:58:32;2.92;;;1.17;;
21663;SDS011;10993;52.510;13.456;2023-04-25T23:03:33;4.95;;;0.95;;
21663;SDS011;10993;52.510;13.456;2023-04-25T23:08:34;4.43;;;0.75;;
21663;SDS011;10993;52.510;13.456;2023-04-25T23:13:36;2.90;;;0.90;;
21663;SDS011;10993;52.510;13.456;2023-04-25T23:18:36;5.78;;;1.30;;
21663;SDS011;10993;52.510;13.456;2023-04-25T23:23:38;2.97;;;1.05;;
21663;SDS011;10993;52.510;13.456;2023-04-25T23:28:40;3.47;;;0.97;;
21663;SDS011;10993;52.510;13.456;2023-04-25T23:33:40;4.90;;;0.80;;
21663;SDS011;10993;52.510;13.456;2023-04-25T23:38:41;3.83;;;0.85;;
21663;SDS011;10993;52.510;13.456;2023-04-25T23:43:42;5.38;;;0.90;;
21663;SDS011;10993;52.510;13.456;2023-04-25T23:48:43;3.08;;;1.23;;
21663;SDS011;10993;52.510;13.456;2023-04-25T23:53:43;5.80;;;1.00;;
21663;SDS011;10993;52.510;13.456;2023-04-25T23:58:47;5.80;;;0.80;;
